Time;durP1;ratioP1;P1;durP2;ratioP2;P2;SDS_P1;SDS_P2;PMS_P1;PMS_P2;Temp;Humidity;BMP_temperature;BMP_pressure;BME280_temperature;BME280_humidity;BME280_pressure;Samples;Min_cycle;Max_cycle;Signal;HPM_P1;HPM_P2
2023/03/23 00:02:25;;;;;;;4.50;2.83;;;12.40;99.90;;;;;;5049636;28;20509;-72
2023/03/23 00:04:52;;;;;;;2.53;2.33;;;12.40;99.90;;;;;;5050090;28;20791;-72
2023/03/23 00:07:21;;;;;;;3.97;2.40;;;12.30;99.90;;;;;;5062714;28;20475;-72
2023/03/23 00:09:52;;;;;;;5.83;2.80;;;12.30;99.90;;;;;;5065956;28;20946;-72
2023/03/23 00:12:21;;;;;;;6.50;3.50;;;12.40;99.90;;;;;;5050599;28;20436;-72
2023/03/23 00:14:48;;;;;;;2.67;2.13;;;12.50;99.90;;;;;;5049603;28;20443;-72
2023/03/23 00:17:19;;;;;;;3.90;2.27;;;12.30;99.90;;;;;;5052210;28;20555;-71
2023/03/23 00:19:46;;;;;;;3.17;2.87;;;12.30;99.90;;;;;;5053253;28;20679;-72
2023/03/23 00:22:15;;;;;;;2.33;2.00;;;12.30;99.90;;;;;;5053551;28;20443;-72
2023/03/23 00:24:42;;;;;;;1.93;1.57;;;12.40;99.90;;;;;;5053398;28;20475;-72
2023/03/23 00:27:12;;;;;;;2.80;2.00;;;12.30;99.90;;;;;;5053081;28;20487;-72
2023/03/23 00:29:39;;;;;;;7.53;2.10;;;12.30;99.90;;;;;;5053357;28;20455;-71
2023/03/23 00:32:12;;;;;;;5.17;3.60;;;12.30;99.90;;;;;;5053305;28;20462;-72
2023/03/23 00:34:43;;;;;;;3.87;2.27;;;12.30;99.90;;;;;;5053300;28;20436;-72
2023/03/23 00:37:10;;;;;;;3.13;2.10;;;12.30;99.90;;;;;;5054035;28;20825;-71
2023/03/23 00:39:45;;;;;;;4.80;1.67;;;12.30;99.90;;;;;;5054971;28;20458;-71
2023/03/23 00:42:13;;;;;;;2.20;1.80;;;12.40;99.90;;;;;;5053200;28;20467;-72
2023/03/23 00:44:40;;;;;;;1.87;1.30;;;12.40;99.90;;;;;;5053156;28;20502;-72
2023/03/23 00:47:09;;;;;;;1.80;1.20;;;12.50;99.90;;;;;;5053449;28;20853;-72
2023/03/23 00:49:38;;;;;;;3.63;2.50;;;12.40;99.90;;;;;;5063430;28;20452;-71
2023/03/23 00:52:07;;;;;;;4.77;2.50;;;12.50;99.90;;;;;;5053477;28;20534;-71
2023/03/23 00:54:37;;;;;;;3.23;1.97;;;12.50;99.90;;;;;;5052900;28;20531;-71
2023/03/23 00:57:05;;;;;;;4.60;2.00;;;12.50;99.90;;;;;;5052385;28;20846;-72
2023/03/23 00:59:32;;;;;;;3.47;1.10;;;12.50;99.90;;;;;;5052863;28;20950;-72
2023/03/23 01:01:59;;;;;;;2.07;1.97;;;12.50;99.90;;;;;;5057239;28;20464;-71
2023/03/23 01:04:28;;;;;;;3.20;1.80;;;12.60;99.90;;;;;;5062384;28;20452;-72
2023/03/23 01:06:56;;;;;;;1.73;1.57;;;12.60;99.90;;;;;;5052998;28;20853;-72
2023/03/23 01:09:24;;;;;;;1.83;1.63;;;12.60;99.90;;;;;;5054161;28;20455;-72
2023/03/23 01:11:53;;;;;;;1.97;1.60;;;12.70;99.90;;;;;;5053838;28;20447;-71
2023/03/23 01:14:20;;;;;;;1.97;1.73;;;12.70;99.90;;;;;;5053087;28;20486;-71
2023/03/23 01:16:47;;;;;;;2.10;1.63;;;12.80;99.90;;;;;;5051243;28;20586;-71
2023/03/23 01:19:15;;;;;;;1.67;1.50;;;12.70;99.90;;;;;;5052499;28;20538;-72
2023/03/23 01:21:42;;;;;;;2.63;1.83;;;12.80;99.90;;;;;;5052132;28;20538;-72
2023/03/23 01:24:09;;;;;;;5.20;1.87;;;12.90;99.90;;;;;;5052520;28;20526;-71
2023/03/23 01:26:38;;;;;;;1.57;1.37;;;12.90;99.90;;;;;;5052051;28;20849;-71
2023/03/23 01:29:05;;;;;;;3.60;1.70;;;12.90;99.90;;;;;;5051746;28;20449;-72
2023/03/23 01:31:32;;;;;;;1.70;1.37;;;12.90;99.90;;;;;;5052153;28;20447;-72
2023/03/23 01:34:00;;;;;;;1.70;1.50;;;12.90;99.90;;;;;;5052747;28;20619;-71
2023/03/23 01:36:32;;;;;;;2.13;1.73;;;12.90;99.90;;;;;;5052091;28;20583;-72
2023/03/23 01:39:00;;;;;;;2.23;1.53;;;13.00;99.90;;;;;;5051655;28;20464;-72
2023/03/23 01:41:27;;;;;;;3.60;2.17;;;12.90;99.90;;;;;;5052122;28;20512;-72
2023/03/23 01:43:58;;;;;;;2.37;2.00;;;12.80;99.90;;;;;;5052081;28;20527;-72
2023/03/23 01:46:27;;;;;;;1.80;1.37;;;12.80;99.90;;;;;;5052275;28;20884;-72
2023/03/23 01:48:57;;;;;;;2.27;1.53;;;12.90;99.90;;;;;;5052232;28;20831;-72
2023/03/23 01:51:27;;;;;;;2.90;1.90;;;12.90;99.90;;;;;;5051692;28;20467;-72
2023/03/23 01:53:57;;;;;;;1.90;1.70;;;13.00;99.90;;;;;;5052191;28;20444;-72
2023/03/23 01:56:29;;;;;;;3.53;1.53;;;13.00;99.90;;;;;;5052003;28;20463;-72
2023/03/23 01:58:57;;;;;;;1.53;1.30;;;12.80;99.90;;;;;;5060431;28;20448;-72
2023/03/23 02:01:26;;;;;;;3.77;1.40;;;12.80;99.90;;;;;;5057365;28;20523;-72
2023/03/23 02:03:55;;;;;;;2.70;1.40;;;12.80;99.90;;;;;;5053463;28;20455;-72
2023/03/23 02:06:23;;;;;;;3.37;1.80;;;12.80;99.90;;;;;;5055159;28;20548;-72
2023/03/23 02:08:51;;;;;;;2.53;1.60;;;12.80;99.90;;;;;;5051895;28;20475;-72
2023/03/23 02:11:19;;;;;;;2.33;1.87;;;12.80;99.90;;;;;;5062117;28;20451;-72
2023/03/23 02:13:47;;;;;;;2.80;1.60;;;12.80;99.90;;;;;;5052086;28;20829;-71
2023/03/23 02:16:23;;;;;;;1.77;1.30;;;12.80;99.90;;;;;;5051587;28;20514;-72
2023/03/23 02:18:58;;;;;;;2.27;1.40;;;12.90;99.90;;;;;;5053185;28;20470;-72
2023/03/23 02:22:02;;;;;;;1.80;1.60;;;12.90;99.90;;;;;;5059754;28;20432;-72
2023/03/23 02:25:00;;;;;;;2.20;1.80;;;12.90;99.90;;;;;;5053774;28;20459;-72
2023/03/23 02:27:48;;;;;;;2.30;1.10;;;12.90;99.90;;;;;;5051011;28;20483;-72
2023/03/23 02:30:43;;;;;;;1.30;1.00;;;13.00;99.90;;;;;;5051035;28;20934;-72
2023/03/23 02:33:32;;;;;;;3.10;1.00;;;12.90;99.90;;;;;;5051275;28;20522;-72
2023/03/23 02:36:03;;;;;;;3.20;1.40;;;13.00;99.90;;;;;;5051239;28;20834;-72
2023/03/23 02:38:40;;;;;;;1.53;1.17;;;13.00;99.90;;;;;;5051501;28;20618;-72
2023/03/23 02:41:09;;;;;;;1.43;1.13;;;13.00;99.90;;;;;;5051098;28;20435;-71
2023/03/23 02:43:41;;;;;;;3.67;1.63;;;13.00;99.90;;;;;;5051055;28;20439;-72
2023/03/23 02:46:10;;;;;;;1.00;0.87;;;12.80;99.90;;;;;;5050764;28;20438;-72
2023/03/23 02:48:43;;;;;;;1.50;1.20;;;12.80;99.90;;;;;;5048988;28;20503;-72
2023/03/23 02:51:12;;;;;;;1.93;1.40;;;12.80;99.90;;;;;;5050994;28;20810;-72
2023/03/23 02:53:43;;;;;;;3.67;1.90;;;12.80;99.90;;;;;;5052418;28;20490;-72
2023/03/23 02:56:14;;;;;;;2.47;1.40;;;12.70;99.90;;;;;;5066369;28;20468;-72
2023/03/23 02:58:41;;;;;;;3.77;2.50;;;12.70;99.90;;;;;;5050745;28;20484;-72
2023/03/23 03:01:32;;;;;;;1.70;1.40;;;12.70;99.90;;;;;;5050629;28;20939;-72
2023/03/23 03:04:08;;;;;;;1.97;1.67;;;12.70;99.90;;;;;;5050254;28;20451;-72
2023/03/23 03:06:42;;;;;;;2.17;1.17;;;12.70;99.90;;;;;;5050847;28;20524;-72
2023/03/23 03:09:17;;;;;;;2.13;1.40;;;12.70;99.90;;;;;;5050465;28;21012;-72
2023/03/23 03:11:48;;;;;;;2.50;1.93;;;12.70;99.90;;;;;;5060018;28;20466;-72
2023/03/23 03:14:20;;;;;;;2.40;1.00;;;12.70;99.90;;;;;;5051126;28;20466;-72
2023/03/23 03:16:54;;;;;;;1.83;1.60;;;12.70;99.90;;;;;;5050831;28;20638;-72
2023/03/23 03:19:27;;;;;;;1.87;1.50;;;12.70;99.90;;;;;;5058186;28;20454;-72
2023/03/23 03:21:57;;;;;;;1.83;1.43;;;12.70;99.90;;;;;;5052137;28;21015;-71
2023/03/23 03:24:26;;;;;;;2.10;1.10;;;12.80;99.90;;;;;;5050717;28;20443;-72
2023/03/23 03:26:57;;;;;;;2.93;1.60;;;12.60;99.90;;;;;;5050213;28;20853;-72
2023/03/23 03:29:30;;;;;;;2.67;1.50;;;12.60;99.90;;;;;;5050439;28;20467;-72
2023/03/23 03:32:00;;;;;;;1.70;1.40;;;12.60;99.90;;;;;;5050130;28;20446;-72
2023/03/23 03:34:31;;;;;;;2.30;1.20;;;12.70;99.90;;;;;;5050209;28;20466;-72
2023/03/23 03:37:00;;;;;;;1.70;1.30;;;12.80;99.90;;;;;;5050197;28;20468;-72
2023/03/23 03:39:28;;;;;;;2.10;1.70;;;12.80;99.90;;;;;;5049954;28;20447;-72
2023/03/23 03:41:56;;;;;;;4.50;1.57;;;12.80;99.90;;;;;;5050006;28;20534;-72
2023/03/23 03:44:23;;;;;;;2.40;1.50;;;12.90;99.90;;;;;;5050158;28;20591;-71
2023/03/23 03:46:50;;;;;;;1.37;1.10;;;12.90;99.90;;;;;;5050015;28;20463;-72
2023/03/23 03:49:17;;;;;;;2.63;1.37;;;12.90;99.90;;;;;;5050198;28;21073;-71
2023/03/23 03:51:45;;;;;;;1.93;1.40;;;12.80;99.90;;;;;;5065643;28;20538;-71
2023/03/23 03:54:12;;;;;;;3.07;1.27;;;12.80;99.90;;;;;;5054043;28;20562;-71
2023/03/23 03:56:41;;;;;;;1.33;1.23;;;12.90;99.90;;;;;;5053935;28;20547;-71
2023/03/23 03:59:09;;;;;;;3.27;1.23;;;12.90;99.90;;;;;;5054380;28;20440;-71
2023/03/23 04:01:38;;;;;;;2.50;1.43;;;12.90;99.90;;;;;;5056225;28;20447;-71
2023/03/23 04:04:06;;;;;;;1.33;1.17;;;12.90;99.90;;;;;;5057845;28;20520;-71
2023/03/23 04:06:35;;;;;;;5.53;1.70;;;12.90;99.90;;;;;;5054501;28;20976;-71
2023/03/23 04:09:06;;;;;;;1.10;1.00;;;12.90;99.90;;;;;;5053660;28;20475;-71
2023/03/23 04:11:33;;;;;;;1.90;1.57;;;12.90;99.90;;;;;;5061985;28;20458;-72
2023/03/23 04:14:00;;;;;;;1.97;1.67;;;12.90;99.90;;;;;;5059036;28;20891;-71
2023/03/23 04:16:29;;;;;;;1.37;1.10;;;12.90;99.90;;;;;;5053230;28;20463;-71
2023/03/23 04:18:59;;;;;;;1.57;1.17;;;12.80;99.90;;;;;;5053585;28;20578;-71
2023/03/23 04:21:29;;;;;;;1.30;1.17;;;12.90;99.90;;;;;;5052516;28;20427;-71
2023/03/23 04:23:58;;;;;;;1.83;1.20;;;12.90;99.90;;;;;;5053663;28;20467;-72
2023/03/23 04:26:28;;;;;;;1.83;1.50;;;12.90;99.90;;;;;;5053366;28;20495;-73
2023/03/23 04:28:55;;;;;;;1.67;1.13;;;12.90;99.90;;;;;;5053263;28;20591;-71
2023/03/23 04:31:24;;;;;;;1.20;0.90;;;13.00;99.90;;;;;;5053778;28;20471;-71
2023/03/23 04:33:52;;;;;;;1.90;1.60;;;12.90;99.90;;;;;;5060754;28;20455;-72
2023/03/23 04:36:19;;;;;;;1.77;1.37;;;13.00;99.90;;;;;;5059095;28;20467;-71
2023/03/23 04:38:46;;;;;;;1.20;1.07;;;13.00;99.90;;;;;;5053164;28;20448;-71
2023/03/23 04:41:13;;;;;;;1.50;1.40;;;13.00;99.90;;;;;;5053459;28;20463;-71
2023/03/23 04:43:42;;;;;;;2.30;1.70;;;12.90;99.90;;;;;;5053074;28;20451;-71
2023/03/23 04:46:09;;;;;;;1.70;1.60;;;12.90;99.90;;;;;;5053380;28;20464;-71
2023/03/23 04:48:38;;;;;;;5.27;1.77;;;12.90;99.90;;;;;;5067091;28;20479;-73
2023/03/23 04:51:07;;;;;;;2.50;1.63;;;12.90;99.90;;;;;;5052618;28;20459;-71
2023/03/23 04:53:34;;;;;;;1.90;1.33;;;12.90;99.90;;;;;;5052932;28;20815;-73
2023/03/23 04:56:02;;;;;;;2.03;1.50;;;12.90;99.90;;;;;;5052411;28;20455;-72
2023/03/23 04:58:29;;;;;;;1.60;1.50;;;13.00;99.90;;;;;;5052781;28;20454;-71
2023/03/23 05:00:58;;;;;;;2.33;1.53;;;13.00;99.90;;;;;;5052761;28;20451;-71
2023/03/23 05:03:25;;;;;;;2.70;1.93;;;12.90;99.90;;;;;;5051324;28;20952;-71
2023/03/23 05:05:53;;;;;;;4.60;1.83;;;12.90;99.90;;;;;;5052625;28;20439;-72
2023/03/23 05:08:20;;;;;;;1.80;1.50;;;12.90;99.90;;;;;;5052253;28;20551;-72
2023/03/23 05:10:53;;;;;;;1.70;1.50;;;12.90;99.90;;;;;;5052165;28;21016;-72
2023/03/23 05:13:21;;;;;;;1.67;0.90;;;12.90;99.90;;;;;;5052271;28;20469;-72
2023/03/23 05:15:48;;;;;;;1.47;1.23;;;13.00;99.90;;;;;;5052510;28;20444;-72
2023/03/23 05:18:17;;;;;;;1.30;1.13;;;13.00;99.90;;;;;;5052373;28;20443;-72
2023/03/23 05:20:46;;;;;;;1.47;0.97;;;13.00;99.90;;;;;;5052915;28;20446;-71
2023/03/23 05:23:14;;;;;;;1.27;1.00;;;13.00;99.90;;;;;;5052609;28;20444;-71
2023/03/23 05:25:41;;;;;;;1.40;1.20;;;13.00;99.90;;;;;;5052219;28;20447;-72
2023/03/23 05:28:10;;;;;;;1.63;1.00;;;13.00;99.90;;;;;;5052204;28;20578;-72
2023/03/23 05:30:39;;;;;;;1.87;1.57;;;13.00;99.90;;;;;;5052041;28;20452;-73
2023/03/23 05:33:06;;;;;;;1.60;0.90;;;13.10;99.90;;;;;;5052598;28;20447;-71
2023/03/23 05:35:34;;;;;;;1.27;1.10;;;13.10;99.90;;;;;;5032861;28;20489;-71
2023/03/23 05:38:03;;;;;;;1.10;1.00;;;13.00;99.90;;;;;;5051460;28;21050;-71
2023/03/23 05:40:30;;;;;;;1.73;1.57;;;13.00;99.90;;;;;;5051749;28;20423;-71
2023/03/23 05:42:58;;;;;;;9.50;1.70;;;13.00;99.90;;;;;;5052841;28;20542;-72
2023/03/23 05:45:26;;;;;;;1.30;1.20;;;13.10;99.90;;;;;;5060656;28;20451;-71
2023/03/23 05:47:53;;;;;;;1.73;1.30;;;13.10;99.90;;;;;;5053727;28;20464;-72
2023/03/23 05:50:21;;;;;;;2.37;1.30;;;13.20;99.90;;;;;;5061711;28;20505;-71
2023/03/23 05:52:50;;;;;;;1.30;0.97;;;13.20;99.90;;;;;;5051752;28;20455;-71
2023/03/23 05:55:17;;;;;;;1.60;1.20;;;13.10;99.90;;;;;;5051384;28;20448;-72
2023/03/23 05:57:44;;;;;;;3.07;2.00;;;13.10;99.90;;;;;;5051693;28;20590;-71
2023/03/23 06:00:19;;;;;;;2.70;1.20;;;13.10;99.90;;;;;;5052025;28;20857;-72
2023/03/23 06:02:50;;;;;;;1.17;1.00;;;13.10;99.90;;;;;;5051733;28;20424;-71
2023/03/23 06:05:19;;;;;;;1.93;1.57;;;13.20;99.90;;;;;;5051601;28;20436;-71
2023/03/23 06:07:46;;;;;;;2.13;1.17;;;13.20;99.90;;;;;;5051449;28;20468;-71
2023/03/23 06:10:14;;;;;;;2.07;1.67;;;13.20;99.90;;;;;;5051009;28;20510;-71
2023/03/23 06:12:42;;;;;;;1.70;1.13;;;13.20;99.90;;;;;;5050922;28;20527;-71
2023/03/23 06:15:10;;;;;;;1.87;1.13;;;13.20;99.90;;;;;;5050690;28;20475;-71
2023/03/23 06:17:37;;;;;;;1.83;1.60;;;13.20;99.90;;;;;;5052390;28;20850;-71
2023/03/23 06:20:09;;;;;;;3.90;2.07;;;13.20;99.90;;;;;;5052083;28;20497;-71
2023/03/23 06:22:37;;;;;;;4.90;1.60;;;13.20;99.90;;;;;;5051982;28;20438;-72
2023/03/23 06:25:05;;;;;;;2.57;1.40;;;13.30;99.90;;;;;;5051184;28;20450;-72
2023/03/23 06:27:35;;;;;;;6.70;1.70;;;13.20;99.90;;;;;;5051046;28;20479;-72
2023/03/23 06:30:02;;;;;;;2.07;1.17;;;13.10;99.90;;;;;;5050664;28;20515;-72
2023/03/23 06:32:31;;;;;;;2.20;1.13;;;13.20;99.90;;;;;;5050978;28;20795;-73
2023/03/23 06:34:58;;;;;;;2.17;1.60;;;13.30;99.90;;;;;;5050860;28;20456;-73
2023/03/23 06:37:25;;;;;;;2.07;1.57;;;13.20;99.90;;;;;;5050626;28;20491;-73
2023/03/23 06:39:52;;;;;;;2.03;1.30;;;13.20;99.90;;;;;;5050523;28;20428;-72
2023/03/23 06:42:19;;;;;;;2.47;1.43;;;13.20;99.90;;;;;;5063214;28;20443;-73
2023/03/23 06:44:47;;;;;;;2.80;1.60;;;13.20;99.90;;;;;;5051548;28;20539;-71
2023/03/23 06:47:15;;;;;;;2.57;1.60;;;13.30;99.90;;;;;;5050470;28;20941;-73
2023/03/23 06:49:42;;;;;;;1.57;1.30;;;13.40;99.90;;;;;;5050450;28;21125;-72
2023/03/23 06:52:08;;;;;;;2.63;1.70;;;13.40;99.90;;;;;;5051128;28;20622;-71
2023/03/23 06:54:36;;;;;;;2.57;1.40;;;13.30;99.90;;;;;;5050684;28;20455;-71
2023/03/23 06:57:02;;;;;;;2.17;1.40;;;13.40;99.90;;;;;;5050527;28;20522;-71
2023/03/23 06:59:29;;;;;;;4.30;1.63;;;13.50;99.90;;;;;;5051308;28;20558;-72
2023/03/23 07:01:58;;;;;;;1.30;1.03;;;13.60;99.90;;;;;;5051387;28;20534;-71
2023/03/23 07:04:25;;;;;;;3.57;1.33;;;13.50;99.90;;;;;;5054664;28;20483;-72
2023/03/23 07:06:52;;;;;;;1.90;1.50;;;13.50;99.90;;;;;;5050707;28;20547;-71
2023/03/23 07:09:19;;;;;;;5.67;1.63;;;13.50;99.90;;;;;;5050422;28;20556;-71
2023/03/23 07:11:47;;;;;;;1.73;1.33;;;13.60;99.90;;;;;;5050394;28;20454;-71
2023/03/23 07:14:14;;;;;;;2.37;1.67;;;13.70;99.90;;;;;;5050634;28;20454;-71
2023/03/23 07:16:44;;;;;;;3.37;1.97;;;13.70;99.90;;;;;;5049724;28;20476;-71
2023/03/23 07:19:13;;;;;;;4.27;1.67;;;13.70;99.90;;;;;;5031103;28;20466;-71
2023/03/23 07:21:40;;;;;;;2.40;2.20;;;13.80;99.90;;;;;;5050315;28;20494;-71
2023/03/23 07:24:12;;;;;;;3.63;1.57;;;13.80;99.90;;;;;;5050707;28;20435;-71
2023/03/23 07:26:39;;;;;;;1.77;1.60;;;13.90;99.90;;;;;;5053560;28;20463;-71
2023/03/23 07:29:06;;;;;;;1.50;1.30;;;13.70;99.90;;;;;;5056213;28;20561;-71
2023/03/23 07:31:33;;;;;;;2.67;1.40;;;13.80;99.90;;;;;;5054498;28;20479;-72
2023/03/23 07:34:00;;;;;;;2.27;1.30;;;13.80;99.90;;;;;;5053826;28;20497;-72
2023/03/23 07:36:28;;;;;;;4.23;1.87;;;13.80;99.90;;;;;;5053984;28;20463;-72
2023/03/23 07:38:56;;;;;;;2.90;1.33;;;13.70;99.90;;;;;;5066824;28;20493;-72
2023/03/23 07:41:23;;;;;;;2.20;1.73;;;13.80;99.90;;;;;;5060617;28;20936;-72
2023/03/23 07:43:52;;;;;;;3.77;1.40;;;13.80;99.90;;;;;;5054430;28;20698;-72
2023/03/23 07:46:20;;;;;;;2.53;1.40;;;13.80;99.90;;;;;;5053841;28;20609;-72
2023/03/23 07:48:47;;;;;;;3.30;1.40;;;13.80;99.90;;;;;;5053425;28;20549;-72
2023/03/23 07:51:16;;;;;;;8.20;1.40;;;13.80;99.90;;;;;;5053629;28;20447;-72
2023/03/23 07:53:46;;;;;;;3.20;1.43;;;13.90;99.90;;;;;;5053792;28;20500;-72
2023/03/23 07:56:14;;;;;;;1.50;1.23;;;13.90;99.90;;;;;;5053561;28;20463;-72
2023/03/23 07:58:41;;;;;;;1.87;1.77;;;13.80;99.90;;;;;;5053600;28;20501;-72
2023/03/23 08:01:09;;;;;;;1.20;0.97;;;13.80;99.90;;;;;;5054038;28;20454;-74
2023/03/23 08:03:36;;;;;;;1.27;0.90;;;13.90;99.90;;;;;;5035075;28;20458;-72
2023/03/23 08:06:03;;;;;;;5.20;1.30;;;13.90;99.90;;;;;;5053427;28;20984;-72
2023/03/23 08:08:31;;;;;;;2.07;0.97;;;13.90;99.90;;;;;;5053505;28;20447;-72
2023/03/23 08:10:59;;;;;;;1.87;1.20;;;13.90;99.90;;;;;;5053719;28;20478;-72
2023/03/23 08:13:26;;;;;;;2.80;1.37;;;13.80;99.90;;;;;;5055370;28;20448;-72
2023/03/23 08:15:53;;;;;;;2.57;1.40;;;13.80;99.90;;;;;;5057294;28;20546;-72
2023/03/23 08:18:20;;;;;;;3.17;1.33;;;13.80;99.90;;;;;;5054231;28;20525;-72
2023/03/23 08:20:48;;;;;;;1.30;0.90;;;13.90;99.90;;;;;;5054199;28;20491;-72
2023/03/23 08:23:15;;;;;;;1.17;1.00;;;13.90;99.90;;;;;;5053239;28;20543;-72
2023/03/23 08:25:47;;;;;;;1.33;1.23;;;13.90;99.90;;;;;;5053117;28;20952;-71
2023/03/23 08:28:24;;;;;;;1.40;1.00;;;14.10;99.90;;;;;;5019053;28;20558;-73
2023/03/23 08:30:51;;;;;;;1.30;1.00;;;14.20;99.90;;;;;;5052976;28;20839;-71
2023/03/23 08:33:21;;;;;;;2.80;1.30;;;14.30;99.90;;;;;;5053789;28;20518;-71
2023/03/23 08:35:56;;;;;;;3.53;1.63;;;14.30;99.90;;;;;;5056558;28;20513;-71
2023/03/23 08:38:23;;;;;;;2.97;1.37;;;14.30;99.90;;;;;;5065710;28;20798;-71
2023/03/23 08:40:51;;;;;;;2.20;1.53;;;14.50;99.90;;;;;;5054654;28;20944;-72
2023/03/23 08:43:20;;;;;;;1.40;1.20;;;14.70;99.90;;;;;;5053500;28;20448;-71
2023/03/23 08:45:47;;;;;;;5.93;1.27;;;14.80;99.90;;;;;;5053471;28;20490;-71
2023/03/23 08:48:15;;;;;;;2.30;1.70;;;14.80;99.90;;;;;;5053015;28;20447;-71
2023/03/23 08:50:42;;;;;;;2.83;1.67;;;14.70;99.90;;;;;;5053196;28;20479;-71
2023/03/23 08:53:09;;;;;;;4.70;1.60;;;14.80;99.90;;;;;;5052512;28;20910;-71
2023/03/23 08:55:36;;;;;;;2.03;1.37;;;14.60;99.90;;;;;;5052822;28;20520;-71
2023/03/23 08:58:04;;;;;;;2.30;1.50;;;14.70;99.90;;;;;;5052450;28;20847;-71
2023/03/23 09:00:32;;;;;;;1.70;1.60;;;14.80;99.90;;;;;;5052612;28;20444;-71
2023/03/23 09:03:04;;;;;;;9.33;2.60;;;14.90;99.90;;;;;;5052741;28;20478;-71
2023/03/23 09:05:31;;;;;;;4.77;1.13;;;15.00;99.90;;;;;;5052586;28;20850;-71
2023/03/23 09:07:59;;;;;;;4.90;1.23;;;15.00;99.90;;;;;;5053310;28;20463;-71
2023/03/23 09:10:27;;;;;;;1.90;1.40;;;15.10;99.90;;;;;;5055338;28;20503;-71
2023/03/23 09:12:55;;;;;;;3.83;1.43;;;15.00;99.90;;;;;;5052762;28;20439;-71
2023/03/23 09:15:23;;;;;;;2.27;1.60;;;14.90;99.90;;;;;;5065282;28;20455;-71
2023/03/23 09:17:53;;;;;;;1.40;1.20;;;14.70;99.90;;;;;;5053479;28;20503;-73
2023/03/23 09:20:22;;;;;;;2.23;0.87;;;14.70;99.90;;;;;;5052141;28;20923;-73
2023/03/23 09:22:51;;;;;;;1.20;0.83;;;14.50;99.90;;;;;;5052179;28;20539;-71
2023/03/23 09:25:21;;;;;;;3.93;1.50;;;14.60;99.90;;;;;;5052271;28;20534;-71
2023/03/23 09:27:52;;;;;;;6.70;1.87;;;14.50;99.90;;;;;;5052221;28;20564;-72
2023/03/23 09:30:20;;;;;;;1.20;1.00;;;14.50;99.90;;;;;;5052141;28;20463;-72
2023/03/23 09:32:48;;;;;;;2.00;1.53;;;14.50;99.90;;;;;;5052909;28;20882;-72
2023/03/23 09:35:17;;;;;;;1.30;0.90;;;14.60;99.90;;;;;;5063921;28;20450;-72
2023/03/23 09:37:46;;;;;;;1.87;1.30;;;14.60;99.90;;;;;;5053578;28;20495;-72
2023/03/23 09:40:18;;;;;;;4.50;1.70;;;14.40;99.90;;;;;;5052123;28;20428;-73
2023/03/23 09:43:05;;;;;;;1.70;1.40;;;14.30;99.90;;;;;;5051531;28;20518;-72
2023/03/23 09:45:39;;;;;;;6.43;0.80;;;14.40;99.90;;;;;;5052104;28;20463;-72
2023/03/23 09:48:30;;;;;;;4.50;1.40;;;14.70;99.90;;;;;;5051245;28;20679;-72
2023/03/23 09:51:05;;;;;;;2.40;1.57;;;14.70;99.90;;;;;;5049118;28;20682;-72
2023/03/23 09:53:38;;;;;;;1.30;0.90;;;14.90;99.90;;;;;;5051371;28;20932;-72
2023/03/23 09:56:12;;;;;;;3.20;1.53;;;15.20;99.90;;;;;;5051296;28;20436;-72
2023/03/23 09:58:46;;;;;;;3.20;1.40;;;15.30;99.90;;;;;;5051377;28;20439;-72
2023/03/23 10:01:20;;;;;;;1.60;1.27;;;15.40;99.90;;;;;;5051548;28;20456;-72
2023/03/23 10:03:48;;;;;;;2.60;1.20;;;15.30;99.90;;;;;;5051568;28;20454;-73
2023/03/23 10:06:18;;;;;;;2.80;1.47;;;15.40;99.90;;;;;;5051011;28;20495;-72
2023/03/23 10:08:49;;;;;;;1.50;1.07;;;15.00;99.90;;;;;;5051180;28;20525;-73
2023/03/23 10:11:34;;;;;;;2.90;1.30;;;14.10;99.90;;;;;;5052063;28;20550;-72
2023/03/23 10:14:18;;;;;;;4.50;1.10;;;12.70;99.90;;;;;;5051909;28;20507;-72
2023/03/23 10:16:55;;;;;;;1.60;0.90;;;12.40;99.90;;;;;;5051705;28;20473;-72
2023/03/23 10:19:30;;;;;;;1.20;0.80;;;12.00;99.90;;;;;;5051521;28;20446;-72
2023/03/23 10:22:03;;;;;;;1.33;1.00;;;11.90;99.90;;;;;;5051756;28;20901;-72
2023/03/23 10:24:36;;;;;;;1.50;0.90;;;11.80;99.90;;;;;;5051907;28;20477;-72
2023/03/23 10:27:13;;;;;;;6.00;2.17;;;11.90;99.90;;;;;;5051341;28;20489;-71
2023/03/23 10:29:44;;;;;;;1.50;1.37;;;11.80;99.90;;;;;;5051369;28;20554;-71
2023/03/23 10:32:14;;;;;;;3.73;1.00;;;11.80;99.90;;;;;;5057828;28;20427;-72
2023/03/23 10:34:46;;;;;;;1.53;0.90;;;11.90;99.90;;;;;;5060981;28;20431;-72
2023/03/23 10:37:18;;;;;;;3.67;1.77;;;11.80;99.90;;;;;;5051374;28;20874;-72
2023/03/23 10:39:51;;;;;;;2.83;1.87;;;11.80;99.90;;;;;;5051436;28;20862;-72
2023/03/23 10:42:27;;;;;;;1.67;1.57;;;11.90;99.90;;;;;;5051290;28;20863;-71
2023/03/23 10:44:56;;;;;;;2.97;1.67;;;12.00;99.90;;;;;;5061646;28;20489;-73
2023/03/23 10:47:24;;;;;;;4.60;1.80;;;12.20;99.90;;;;;;5056820;28;20456;-72
2023/03/23 10:49:57;;;;;;;5.53;1.93;;;12.20;99.90;;;;;;5053118;28;21039;-72
2023/03/23 10:52:34;;;;;;;7.73;3.30;;;12.10;99.90;;;;;;5057497;28;20458;-72
2023/03/23 10:55:05;;;;;;;1.50;1.37;;;12.20;99.90;;;;;;5051841;28;20467;-71
2023/03/23 10:57:37;;;;;;;2.63;1.20;;;12.20;99.90;;;;;;5053628;28;20467;-72
2023/03/23 11:00:08;;;;;;;1.63;1.30;;;12.00;99.90;;;;;;5052196;28;20434;-71
2023/03/23 11:02:40;;;;;;;6.00;2.10;;;12.10;99.90;;;;;;5050834;28;20447;-71
2023/03/23 11:05:21;;;;;;;4.67;2.00;;;12.20;99.90;;;;;;5051001;28;20474;-71
2023/03/23 11:07:53;;;;;;;1.80;1.40;;;12.30;99.90;;;;;;5050675;28;20467;-71
2023/03/23 11:10:25;;;;;;;2.23;1.33;;;12.40;99.90;;;;;;5050638;28;20916;-72
2023/03/23 11:12:53;;;;;;;1.60;1.30;;;12.20;99.90;;;;;;5050385;28;20531;-71
2023/03/23 11:15:31;;;;;;;3.23;1.40;;;12.50;99.90;;;;;;5055856;28;20767;-71
2023/03/23 11:18:01;;;;;;;1.53;1.30;;;12.80;99.90;;;;;;5056347;28;20858;-71
2023/03/23 11:20:30;;;;;;;8.40;1.60;;;12.80;99.90;;;;;;5051122;28;20448;-71
2023/03/23 11:22:59;;;;;;;3.63;1.63;;;12.70;99.90;;;;;;5050930;28;20461;-73
2023/03/23 11:25:26;;;;;;;1.40;0.97;;;12.60;99.90;;;;;;5050735;28;20455;-71
2023/03/23 11:27:54;;;;;;;1.40;0.97;;;12.50;99.90;;;;;;5050631;28;20471;-71
2023/03/23 11:30:27;;;;;;;4.07;1.17;;;12.30;99.90;;;;;;5054406;28;20582;-71
2023/03/23 11:32:54;;;;;;;1.20;1.10;;;12.10;99.90;;;;;;5057510;28;20451;-71
2023/03/23 11:35:27;;;;;;;2.27;1.87;;;12.20;99.90;;;;;;5050869;28;20878;-71
2023/03/23 11:37:56;;;;;;;3.40;1.83;;;12.30;99.90;;;;;;5050487;28;20567;-71
2023/03/23 11:40:27;;;;;;;2.47;1.90;;;12.10;99.90;;;;;;5051014;28;20534;-72
2023/03/23 11:43:11;;;;;;;1.77;1.30;;;12.00;99.90;;;;;;5050858;28;20420;-71
2023/03/23 11:45:40;;;;;;;2.30;1.17;;;12.00;99.90;;;;;;5050722;28;20448;-72
2023/03/23 11:48:16;;;;;;;4.33;2.20;;;12.00;99.90;;;;;;5050620;28;20475;-72
2023/03/23 11:50:51;;;;;;;2.27;1.43;;;12.00;99.90;;;;;;5061011;28;20459;-72
2023/03/23 11:53:29;;;;;;;1.60;1.37;;;12.10;99.90;;;;;;5055596;28;20431;-72
2023/03/23 11:56:12;;;;;;;1.60;1.10;;;12.40;99.90;;;;;;5051179;28;20428;-72
2023/03/23 11:58:40;;;;;;;1.37;1.10;;;12.50;99.90;;;;;;5050351;28;21067;-71
2023/03/23 12:01:14;;;;;;;2.30;1.07;;;12.20;99.90;;;;;;5050251;28;20444;-71
2023/03/23 12:03:56;;;;;;;1.33;1.00;;;12.20;99.90;;;;;;5050619;28;20939;-71
2023/03/23 12:06:31;;;;;;;1.77;1.60;;;12.10;99.90;;;;;;5052111;28;20463;-71
2023/03/23 12:09:11;;;;;;;4.70;1.17;;;12.20;99.90;;;;;;5050011;28;20443;-71
2023/03/23 12:11:52;;;;;;;2.37;1.30;;;12.20;99.90;;;;;;5050681;28;20555;-71
2023/03/23 12:14:29;;;;;;;1.30;0.80;;;12.10;99.90;;;;;;5054131;28;20467;-71
2023/03/23 12:17:06;;;;;;;1.30;1.20;;;12.10;99.90;;;;;;5054093;28;20499;-71
2023/03/23 12:19:45;;;;;;;1.90;1.30;;;12.10;99.90;;;;;;5053374;28;20538;-72
2023/03/23 12:22:25;;;;;;;1.40;1.30;;;12.20;99.90;;;;;;5053539;28;20432;-71
2023/03/23 12:25:06;;;;;;;3.67;1.80;;;12.30;99.90;;;;;;5052514;28;20443;-71
2023/03/23 12:27:46;;;;;;;2.00;1.60;;;12.30;99.90;;;;;;5055456;28;20467;-71
2023/03/23 12:30:24;;;;;;;2.77;2.20;;;12.40;99.90;;;;;;5064428;28;20460;-72
2023/03/23 12:33:09;;;;;;;2.60;1.90;;;12.50;99.90;;;;;;5056644;28;20463;-72
2023/03/23 12:35:48;;;;;;;2.33;2.10;;;12.40;99.90;;;;;;5053515;28;20443;-71
2023/03/23 12:38:46;;;;;;;4.60;2.77;;;12.40;99.90;;;;;;5052890;28;20488;-71
2023/03/23 12:41:18;;;;;;;4.43;1.77;;;12.30;99.90;;;;;;5053291;28;20928;-73
2023/03/23 12:43:54;;;;;;;3.90;2.47;;;12.20;99.90;;;;;;5052601;28;20860;-72
2023/03/23 12:46:53;;;;;;;4.97;2.90;;;12.30;99.90;;;;;;5052772;28;20471;-73
2023/03/23 12:49:25;;;;;;;3.40;2.20;;;12.40;99.90;;;;;;5034919;28;20534;-72
2023/03/23 12:52:00;;;;;;;6.30;2.60;;;12.30;99.90;;;;;;5052590;28;20886;-72
2023/03/23 12:54:32;;;;;;;2.63;2.43;;;12.50;99.90;;;;;;5052795;28;20469;-72
2023/03/23 12:57:03;;;;;;;4.90;2.73;;;12.60;99.90;;;;;;5064762;28;20523;-73
2023/03/23 12:59:37;;;;;;;1.90;1.40;;;12.70;99.90;;;;;;5057728;28;20512;-72
2023/03/23 13:02:25;;;;;;;2.30;1.90;;;12.70;99.90;;;;;;5052816;28;20416;-72
2023/03/23 13:04:59;;;;;;;1.53;1.37;;;12.70;99.90;;;;;;5052804;28;20436;-72
2023/03/23 13:07:30;;;;;;;4.70;1.53;;;12.80;99.90;;;;;;5052436;28;20494;-72